Time;durP1;ratioP1;P1;durP2;ratioP2;P2;SDS_P1;SDS_P2;PMS_P1;PMS_P2;Temp;Humidity;BMP_temperature;BMP_pressure;BME280_temperature;BME280_humidity;BME280_pressure;Samples;Min_cycle;Max_cycle;Signal;HPM_P1;HPM_P2
2022/12/08 00:22:51;;;;;;;15.90;7.50;;;12.90;91.30;;;;;;4590511;19;20038;-28
2022/12/08 00:24:25;;;;;;;12.55;7.57;;;13.00;91.30;;;;;;4592088;19;20022;-29
2022/12/08 00:26:04;;;;;;;11.83;6.87;;;13.00;91.30;;;;;;4590908;19;20403;-33
2022/12/08 00:27:36;;;;;;;10.00;6.00;;;13.00;91.20;;;;;;4591367;19;20027;-31
2022/12/08 00:29:08;;;;;;;12.93;6.63;;;13.00;91.20;;;;;;4589943;19;20039;-29
2022/12/08 00:30:40;;;;;;;;;;;13.00;91.20;;;;;;4592475;19;20109;-31
2022/12/08 00:32:11;;;;;;;8.65;5.35;;;13.00;91.10;;;;;;4591937;19;20246;-28
2022/12/08 00:33:43;;;;;;;;;;;13.00;91.10;;;;;;4591777;19;20022;-33
2022/12/08 00:35:15;;;;;;;17.17;11.18;;;13.00;91.00;;;;;;4591730;19;19914;-31
2022/12/08 00:36:46;;;;;;;8.95;5.13;;;13.00;91.00;;;;;;4590838;19;20010;-28
2022/12/08 00:38:18;;;;;;;;;;;13.00;91.00;;;;;;4592510;19;20022;-32
2022/12/08 00:39:49;;;;;;;8.95;4.72;;;12.90;91.00;;;;;;4590359;19;19915;-27
2022/12/08 00:43:11;;;;;;;10.17;4.57;;;13.00;91.00;;;;;;4592118;19;20488;-28
2022/12/08 00:44:43;;;;;;;8.23;5.07;;;13.00;90.90;;;;;;4591013;19;20018;-30
2022/12/08 00:46:14;;;;;;;;;;;12.90;90.90;;;;;;4592262;19;20375;-28
2022/12/08 00:47:45;;;;;;;8.00;4.87;;;12.90;90.90;;;;;;4591712;19;19937;-29
2022/12/08 00:49:16;;;;;;;6.53;4.20;;;12.90;90.80;;;;;;4591678;19;20415;-27
2022/12/08 00:50:47;;;;;;;7.50;4.35;;;12.90;90.80;;;;;;4590435;19;20010;-30
2022/12/08 00:52:19;;;;;;;11.70;7.47;;;12.90;90.80;;;;;;4590605;19;20015;-31
2022/12/08 00:53:49;;;;;;;8.25;4.88;;;12.90;90.70;;;;;;4590449;19;20101;-29
2022/12/08 00:55:20;;;;;;;11.65;5.18;;;12.90;90.70;;;;;;4591547;19;20370;-32
2022/12/08 00:56:52;;;;;;;8.50;4.60;;;12.90;90.70;;;;;;4589198;19;20018;-28
2022/12/08 00:58:23;;;;;;;10.43;4.97;;;12.90;90.70;;;;;;4590407;19;20014;-29
2022/12/08 00:59:53;;;;;;;8.38;4.80;;;12.90;90.70;;;;;;4590615;19;20027;-28
2022/12/08 01:01:25;;;;;;;8.60;5.00;;;12.90;90.60;;;;;;4591708;19;20479;-28
2022/12/08 01:02:56;;;;;;;6.30;3.70;;;12.90;90.70;;;;;;4591416;19;20007;-31
2022/12/08 01:04:28;;;;;;;9.10;4.28;;;12.90;90.70;;;;;;4591484;19;20014;-27
2022/12/08 01:06:02;;;;;;;8.67;4.20;;;12.90;90.60;;;;;;4591848;19;20006;-29
2022/12/08 01:07:33;;;;;;;10.70;5.23;;;12.90;90.70;;;;;;4590072;19;20010;-29
2022/12/08 01:09:05;;;;;;;9.18;4.25;;;12.90;90.60;;;;;;4590076;19;20022;-28
2022/12/08 01:10:36;;;;;;;;;;;12.90;90.60;;;;;;4591911;19;20010;-28
2022/12/08 01:12:07;;;;;;;11.17;5.30;;;12.90;90.60;;;;;;4591176;19;20302;-28
2022/12/08 01:13:38;;;;;;;7.40;3.65;;;12.90;90.60;;;;;;4591097;19;20011;-28
2022/12/08 01:15:10;;;;;;;7.45;4.07;;;12.90;90.60;;;;;;4589984;19;20019;-29
2022/12/08 01:16:41;;;;;;;9.23;4.93;;;12.90;90.50;;;;;;4590563;19;20015;-28
2022/12/08 01:18:12;;;;;;;6.72;3.67;;;12.90;90.60;;;;;;4590263;19;20488;-28
2022/12/08 01:19:43;;;;;;;8.82;4.97;;;12.90;90.60;;;;;;4590465;19;20350;-28
2022/12/08 01:21:14;;;;;;;6.30;3.58;;;12.90;90.50;;;;;;4590069;19;20020;-30
2022/12/08 04:45:26;;;;;;;3.67;2.65;;;12.70;88.50;;;;;;4591073;19;20432;-26
2022/12/08 04:46:57;;;;;;;5.63;3.17;;;12.70;88.50;;;;;;4591132;19;20375;-28
2022/12/08 04:48:28;;;;;;;3.92;2.65;;;12.80;88.30;;;;;;4591942;19;20031;-34
2022/12/08 04:50:00;;;;;;;3.63;2.30;;;12.80;87.80;;;;;;4592496;19;20014;-27
2022/12/08 04:51:31;;;;;;;4.13;3.10;;;12.90;87.90;;;;;;4592323;19;20015;-28
2022/12/08 04:53:01;;;;;;;5.25;4.05;;;11.70;87.50;;;;;;4592295;19;20015;-32
2022/12/08 04:54:33;;;;;;;4.82;3.35;;;10.20;91.00;;;;;;4591537;19;20025;-30
2022/12/08 04:56:04;;;;;;;5.93;4.18;;;9.30;92.10;;;;;;4590632;19;20038;-31
2022/12/08 04:57:35;;;;;;;5.78;3.67;;;8.90;92.40;;;;;;4590627;19;20018;-38
2022/12/08 04:59:06;;;;;;;4.55;3.72;;;8.70;92.50;;;;;;4590526;19;20350;-36
2022/12/08 05:00:37;;;;;;;5.07;4.30;;;8.60;92.80;;;;;;4588887;19;20014;-35
2022/12/08 05:02:08;;;;;;;6.75;4.95;;;8.50;92.80;;;;;;4590028;19;20014;-31
2022/12/08 05:03:39;;;;;;;5.65;4.22;;;8.40;93.00;;;;;;4592451;19;20026;-32
2022/12/08 05:05:10;;;;;;;5.90;3.90;;;8.40;93.00;;;;;;4592565;19;20018;-33
2022/12/08 05:06:41;;;;;;;5.15;3.47;;;8.40;92.90;;;;;;4591527;19;20487;-32
2022/12/08 05:08:12;;;;;;;3.90;2.75;;;8.30;93.20;;;;;;4591298;19;20026;-33
2022/12/08 05:09:43;;;;;;;4.57;3.03;;;8.30;93.50;;;;;;4591200;19;20014;-31
2022/12/08 05:11:14;;;;;;;5.75;3.17;;;8.20;93.30;;;;;;4589946;19;20516;-32
2022/12/08 05:12:45;;;;;;;5.72;3.22;;;8.10;94.40;;;;;;4588716;19;20029;-36
2022/12/08 05:14:17;;;;;;;4.32;3.30;;;8.20;94.00;;;;;;4587674;19;20031;-34
2022/12/08 05:15:48;;;;;;;6.03;4.15;;;8.10;93.40;;;;;;4586487;19;20028;-31
2022/12/08 05:17:20;;;;;;;6.55;3.97;;;8.10;93.60;;;;;;4587391;19;20014;-33
2022/12/08 05:18:51;;;;;;;5.10;3.80;;;8.10;93.90;;;;;;4590257;19;20035;-33
2022/12/08 05:20:22;;;;;;;5.00;3.83;;;8.00;93.70;;;;;;4588057;19;20018;-34
2022/12/08 05:21:53;;;;;;;4.20;2.88;;;8.00;93.80;;;;;;4589250;19;20019;-28
2022/12/08 05:23:24;;;;;;;5.78;4.07;;;7.90;93.70;;;;;;4586940;19;20082;-37
2022/12/08 05:24:55;;;;;;;8.00;5.30;;;7.90;94.00;;;;;;4587440;19;20109;-34
2022/12/08 05:26:26;;;;;;;4.82;3.40;;;7.90;94.10;;;;;;4587927;19;20015;-36
2022/12/08 05:27:57;;;;;;;6.03;3.97;;;7.80;94.00;;;;;;4591271;19;20029;-32
2022/12/08 05:29:28;;;;;;;6.40;3.53;;;7.80;94.20;;;;;;4589702;19;20014;-34
2022/12/08 05:31:00;;;;;;;7.40;4.63;;;7.70;94.30;;;;;;4590419;19;20472;-30
2022/12/08 05:32:30;;;;;;;6.82;4.53;;;7.80;94.50;;;;;;4591496;19;20026;-31
2022/12/08 05:34:01;;;;;;;10.88;6.15;;;7.70;94.20;;;;;;4589796;19;20017;-30
2022/12/08 05:35:33;;;;;;;9.23;5.90;;;7.70;94.20;;;;;;4591463;19;20038;-30
2022/12/08 05:37:04;;;;;;;7.80;4.95;;;7.70;94.40;;;;;;4591389;19;20014;-30
2022/12/08 05:41:44;;;;;;;5.97;4.17;;;7.60;94.90;;;;;;4588820;19;19994;-30
2022/12/08 05:43:16;;;;;;;6.70;4.57;;;7.60;94.70;;;;;;4586737;19;20485;-30
2022/12/08 05:44:47;;;;;;;7.00;4.20;;;7.60;94.60;;;;;;4589613;19;20602;-32
2022/12/08 05:46:19;;;;;;;7.55;4.82;;;7.50;94.80;;;;;;4588896;19;20018;-30
2022/12/08 05:47:52;;;;;;;7.30;5.38;;;7.50;95.00;;;;;;4589045;19;20015;-30
2022/12/08 05:49:24;;;;;;;10.90;8.10;;;7.50;95.10;;;;;;4588969;19;20006;-30
2022/12/08 05:50:55;;;;;;;10.95;8.23;;;7.50;95.20;;;;;;4588391;19;20464;-32
2022/12/08 05:52:27;;;;;;;;;;;7.40;95.40;;;;;;4589282;19;20031;-29
2022/12/08 05:53:58;;;;;;;8.23;7.10;;;7.40;95.20;;;;;;4587898;19;19935;-29
2022/12/08 05:55:30;;;;;;;9.90;8.25;;;7.40;95.30;;;;;;4587556;19;21119;-28
2022/12/08 05:57:02;;;;;;;10.77;8.47;;;7.40;95.40;;;;;;4586103;19;20022;-29
2022/12/08 05:58:33;;;;;;;12.25;10.07;;;7.40;95.40;;;;;;4589247;19;20489;-30
2022/12/08 06:00:05;;;;;;;11.55;9.65;;;7.40;95.50;;;;;;4588662;19;20011;-30
2022/12/08 06:01:36;;;;;;;12.07;9.50;;;7.30;95.50;;;;;;4589658;19;20018;-30
2022/12/08 06:03:08;;;;;;;12.20;8.77;;;7.30;95.70;;;;;;4588710;19;20620;-29
2022/12/08 06:04:39;;;;;;;;;;;7.30;95.50;;;;;;4589202;19;20040;-30
2022/12/08 06:06:10;;;;;;;6.20;4.70;;;7.30;95.60;;;;;;4588290;19;19969;-29
2022/12/08 06:07:42;;;;;;;6.78;5.32;;;7.30;95.70;;;;;;4588173;19;20476;-31
2022/12/08 06:09:13;;;;;;;6.10;5.40;;;7.30;95.80;;;;;;4587382;19;20117;-31
2022/12/08 06:10:44;;;;;;;7.25;5.63;;;7.30;95.90;;;;;;4589081;19;20039;-28
2022/12/08 06:12:15;;;;;;;7.25;4.55;;;7.20;95.70;;;;;;4589666;19;20011;-29
2022/12/08 06:13:47;;;;;;;6.60;4.88;;;7.20;95.50;;;;;;4590866;19;20010;-29
2022/12/08 06:15:18;;;;;;;7.37;6.03;;;7.20;95.60;;;;;;4590551;19;20018;-30
2022/12/08 06:16:50;;;;;;;8.98;7.20;;;7.20;95.80;;;;;;4590912;19;20465;-29
2022/12/08 06:18:21;;;;;;;14.43;9.65;;;7.20;95.90;;;;;;4591294;19;20015;-30
2022/12/08 06:19:53;;;;;;;14.57;11.07;;;7.20;96.00;;;;;;4590222;19;20023;-30
2022/12/08 06:21:24;;;;;;;19.15;12.85;;;7.20;95.90;;;;;;4589635;19;20473;-32
2022/12/08 06:22:55;;;;;;;15.48;11.10;;;7.10;95.90;;;;;;4587138;19;20419;-35
2022/12/08 06:24:27;;;;;;;16.30;11.10;;;7.10;96.20;;;;;;4591573;19;20011;-34
2022/12/08 06:26:02;;;;;;;13.15;9.65;;;7.10;96.20;;;;;;4589394;19;20034;-34
2022/12/08 06:27:33;;;;;;;12.90;10.77;;;7.10;96.00;;;;;;4589263;19;20006;-34
2022/12/08 06:29:04;;;;;;;11.02;8.77;;;7.10;96.00;;;;;;4589368;19;21076;-30
2022/12/08 06:30:36;;;;;;;14.30;10.20;;;7.10;96.40;;;;;;4588434;19;20189;-33
2022/12/08 06:32:07;;;;;;;9.70;8.07;;;7.10;96.20;;;;;;4588584;19;20042;-30
2022/12/08 06:33:39;;;;;;;9.95;7.80;;;7.10;96.30;;;;;;4588678;19;20477;-29
2022/12/08 06:35:10;;;;;;;8.77;7.05;;;7.10;96.20;;;;;;4587855;19;20018;-30
2022/12/08 06:36:41;;;;;;;8.68;7.25;;;7.10;96.30;;;;;;4587577;19;20014;-32
2022/12/08 06:38:12;;;;;;;10.18;8.02;;;7.10;96.30;;;;;;4588721;19;20074;-33
2022/12/08 06:39:44;;;;;;;9.68;8.02;;;7.10;96.30;;;;;;4590526;19;20042;-31
2022/12/08 06:41:15;;;;;;;10.10;7.50;;;7.10;96.30;;;;;;4588398;19;20018;-33
2022/12/08 06:42:47;;;;;;;;;;;7.10;96.30;;;;;;4589735;19;20013;-34
2022/12/08 06:44:18;;;;;;;14.23;10.17;;;7.10;96.30;;;;;;4588247;19;19962;-32
2022/12/08 06:45:50;;;;;;;11.00;9.52;;;7.00;96.60;;;;;;4589224;19;20433;-29
2022/12/08 06:47:21;;;;;;;10.45;7.70;;;7.10;96.50;;;;;;4590655;19;20006;-33
2022/12/08 06:48:52;;;;;;;11.48;7.78;;;7.10;96.50;;;;;;4589921;19;20025;-32
2022/12/08 06:50:23;;;;;;;8.68;6.65;;;7.00;96.50;;;;;;4589741;19;20019;-35
2022/12/08 06:51:55;;;;;;;9.52;7.70;;;7.00;96.60;;;;;;4588765;19;20006;-29
2022/12/08 06:53:26;;;;;;;8.50;6.72;;;7.10;96.70;;;;;;4589176;19;20011;-34
2022/12/08 06:54:57;;;;;;;8.55;6.60;;;7.10;96.80;;;;;;4589416;19;20031;-31
2022/12/08 06:56:29;;;;;;;10.23;6.50;;;7.10;96.60;;;;;;4589113;19;20019;-34
2022/12/08 06:58:00;;;;;;;8.80;6.95;;;7.10;96.80;;;;;;4589539;19;20010;-27
2022/12/08 06:59:31;;;;;;;8.65;6.80;;;7.10;96.70;;;;;;4589273;19;20013;-33
2022/12/08 07:01:12;;;;;;;8.82;6.35;;;7.10;96.90;;;;;;4587635;19;20477;-33
2022/12/08 07:04:33;;;;;;;9.27;6.50;;;7.10;96.80;;;;;;4588164;19;20410;-30
2022/12/08 07:06:05;;;;;;;8.68;6.55;;;7.10;96.90;;;;;;4590428;19;20429;-34
2022/12/08 07:07:36;;;;;;;9.50;7.68;;;7.10;96.90;;;;;;4587974;19;20019;-34
2022/12/08 07:09:08;;;;;;;8.07;6.38;;;7.10;97.00;;;;;;4588359;19;20035;-27
2022/12/08 07:10:39;;;;;;;9.45;6.88;;;7.10;96.80;;;;;;4589231;19;20098;-32
2022/12/08 07:12:10;;;;;;;10.20;7.80;;;7.10;96.90;;;;;;4589547;19;20025;-31
2022/12/08 07:13:41;;;;;;;9.93;8.40;;;7.10;97.10;;;;;;4589146;19;20011;-34
2022/12/08 07:15:13;;;;;;;11.80;8.20;;;7.10;97.20;;;;;;4589719;19;20029;-32
2022/12/08 07:16:44;;;;;;;12.82;8.70;;;7.20;97.50;;;;;;4588447;19;20010;-30
2022/12/08 07:18:15;;;;;;;10.00;8.35;;;7.10;97.20;;;;;;4589112;19;20018;-32
2022/12/08 07:19:46;;;;;;;11.48;8.68;;;7.10;97.20;;;;;;4588923;19;20078;-30
2022/12/08 07:21:17;;;;;;;27.23;14.20;;;7.20;97.30;;;;;;4587740;19;20017;-32
2022/12/08 07:22:49;;;;;;;21.33;12.10;;;7.10;97.40;;;;;;4588507;19;20010;-31
2022/12/08 07:24:21;;;;;;;19.63;10.90;;;7.10;97.30;;;;;;4587973;19;20073;-29
2022/12/08 07:25:52;;;;;;;14.60;10.73;;;7.10;97.30;;;;;;4588355;19;20436;-31
2022/12/08 07:27:23;;;;;;;14.63;10.57;;;7.10;97.40;;;;;;4588546;19;19998;-36
2022/12/08 07:28:55;;;;;;;13.43;11.35;;;7.20;97.40;;;;;;4588717;19;20011;-30
2022/12/08 07:30:26;;;;;;;13.35;11.60;;;7.10;97.60;;;;;;4588667;19;20469;-36
2022/12/08 07:31:57;;;;;;;11.38;9.73;;;7.20;97.50;;;;;;4589267;19;20059;-32
2022/12/08 07:33:29;;;;;;;;;;;7.20;97.40;;;;;;4589269;19;20007;-32
2022/12/08 07:35:00;;;;;;;12.77;10.87;;;7.20;97.50;;;;;;4587704;19;19918;-36
2022/12/08 07:36:31;;;;;;;13.80;12.30;;;7.20;97.40;;;;;;4588597;19;20800;-33
2022/12/08 07:38:03;;;;;;;13.65;11.88;;;7.20;97.70;;;;;;4590016;19;20074;-30
2022/12/08 07:39:34;;;;;;;15.15;12.32;;;7.20;97.60;;;;;;4592960;19;20007;-30
2022/12/08 07:41:05;;;;;;;14.23;11.45;;;7.20;97.60;;;;;;4591628;19;20017;-29
2022/12/08 07:42:37;;;;;;;12.80;10.88;;;7.20;97.90;;;;;;4591208;19;20107;-32
2022/12/08 07:44:12;;;;;;;13.65;9.75;;;7.80;97.40;;;;;;4589780;19;20010;-34
2022/12/08 07:45:43;;;;;;;13.83;10.63;;;8.70;96.40;;;;;;4591515;19;20025;-34
2022/12/08 07:47:15;;;;;;;11.30;10.00;;;9.30;95.60;;;;;;4590767;19;20593;-34
2022/12/08 07:48:46;;;;;;;14.32;8.95;;;9.70;95.10;;;;;;4591151;19;20006;-31
2022/12/08 07:50:17;;;;;;;12.80;9.10;;;10.00;94.60;;;;;;4591211;19;20002;-34
2022/12/08 07:51:48;;;;;;;11.27;8.90;;;10.30;94.40;;;;;;4591912;19;20104;-31
2022/12/08 07:53:20;;;;;;;12.60;8.85;;;10.40;94.00;;;;;;4591269;19;20018;-33
2022/12/08 07:54:51;;;;;;;13.25;10.13;;;10.60;93.90;;;;;;4591363;19;20010;-33
2022/12/08 07:56:22;;;;;;;11.27;9.00;;;10.70;93.70;;;;;;4592872;19;20014;-32
2022/12/08 07:57:53;;;;;;;10.98;8.10;;;10.80;93.60;;;;;;4590861;19;20039;-31
2022/12/08 07:59:25;;;;;;;14.98;10.32;;;10.90;93.80;;;;;;4590880;19;20017;-32
2022/12/08 08:00:57;;;;;;;17.30;10.77;;;11.00;93.50;;;;;;4589814;19;20120;-28
2022/12/08 08:02:28;;;;;;;13.25;10.65;;;11.10;93.40;;;;;;4591294;19;20800;-29
2022/12/08 08:04:00;;;;;;;23.10;17.88;;;11.20;93.30;;;;;;4590651;19;20018;-30
2022/12/08 08:05:32;;;;;;;26.43;20.30;;;11.20;93.20;;;;;;4591195;19;20497;-32
2022/12/08 08:07:03;;;;;;;28.90;20.63;;;11.30;93.20;;;;;;4592803;19;20472;-29
2022/12/08 08:08:34;;;;;;;20.52;15.43;;;11.30;93.20;;;;;;4593922;19;20011;-30
2022/12/08 08:10:06;;;;;;;20.60;15.00;;;11.40;93.10;;;;;;4591056;19;20019;-30
2022/12/08 08:11:37;;;;;;;;;;;11.40;93.00;;;;;;4591871;19;20019;-29
2022/12/08 08:13:08;;;;;;;16.07;12.00;;;11.50;93.00;;;;;;4592231;19;20259;-32
2022/12/08 08:14:40;;;;;;;14.18;10.20;;;11.50;92.90;;;;;;4591636;19;20032;-29
2022/12/08 08:16:12;;;;;;;13.85;9.55;;;11.60;92.90;;;;;;4591539;19;20349;-30
2022/12/08 08:17:43;;;;;;;17.37;10.30;;;11.60;92.90;;;;;;4591958;19;20494;-29
2022/12/08 08:19:15;;;;;;;12.07;9.48;;;11.60;92.80;;;;;;4592913;19;20556;-33
2022/12/08 08:20:47;;;;;;;13.18;9.52;;;11.70;92.90;;;;;;4590484;19;20043;-35
2022/12/08 08:22:18;;;;;;;14.85;9.75;;;11.70;92.80;;;;;;4592118;19;20027;-34
2022/12/08 08:23:50;;;;;;;14.07;10.03;;;11.70;92.70;;;;;;4591828;19;20081;-35
2022/12/08 08:25:23;;;;;;;13.90;9.73;;;11.80;92.80;;;;;;4592790;19;20437;-28
2022/12/08 08:26:54;;;;;;;15.37;9.60;;;11.80;92.80;;;;;;4594837;19;20048;-33
2022/12/08 08:28:27;;;;;;;14.10;9.35;;;11.80;92.80;;;;;;4592723;19;20496;-29
2022/12/08 08:29:58;;;;;;;22.43;14.57;;;11.90;92.80;;;;;;4593268;19;20368;-35
2022/12/08 08:31:29;;;;;;;24.33;16.60;;;11.90;92.70;;;;;;4592539;19;20433;-29
2022/12/08 08:33:01;;;;;;;23.83;14.73;;;11.90;92.70;;;;;;4592456;19;20055;-29
2022/12/08 08:34:32;;;;;;;25.20;13.50;;;11.90;92.80;;;;;;4589816;19;20380;-33
2022/12/08 08:36:07;;;;;;;21.70;13.30;;;11.90;92.70;;;;;;4592441;19;20006;-30
2022/12/08 08:37:39;;;;;;;29.67;17.93;;;12.00;92.80;;;;;;4590106;19;20011;-29
2022/12/08 08:39:11;;;;;;;22.25;14.60;;;12.00;92.80;;;;;;4591468;19;20852;-29
2022/12/08 08:40:42;;;;;;;19.73;13.33;;;12.00;92.70;;;;;;4590044;19;20406;-31
2022/12/08 08:42:14;;;;;;;20.17;13.05;;;12.00;92.70;;;;;;4592388;19;20887;-28
2022/12/08 08:43:45;;;;;;;17.02;13.02;;;12.00;92.70;;;;;;4591757;19;20515;-29
2022/12/08 08:45:16;;;;;;;16.45;12.57;;;12.00;92.80;;;;;;4590926;19;20071;-29
2022/12/08 08:46:47;;;;;;;14.30;10.95;;;12.00;92.80;;;;;;4592631;19;20018;-32
2022/12/08 08:48:18;;;;;;;11.82;9.48;;;12.10;92.80;;;;;;4593374;19;20017;-29
2022/12/08 08:49:49;;;;;;;16.40;10.73;;;12.10;92.80;;;;;;4591009;19;20381;-28
2022/12/08 08:51:21;;;;;;;16.05;9.98;;;12.10;92.80;;;;;;4592172;19;20052;-29
2022/12/08 08:52:52;;;;;;;16.30;10.40;;;12.20;92.80;;;;;;4592503;19;20070;-34
2022/12/08 08:54:23;;;;;;;13.07;9.82;;;12.20;92.70;;;;;;4591244;19;20022;-34
2022/12/08 08:55:55;;;;;;;14.52;9.95;;;12.40;92.60;;;;;;4590523;19;20517;-32
2022/12/08 08:57:26;;;;;;;13.00;9.93;;;12.40;92.50;;;;;;4591886;19;20017;-29
2022/12/08 08:58:57;;;;;;;15.82;9.75;;;12.50;92.50;;;;;;4591227;19;20377;-29
2022/12/08 09:00:28;;;;;;;13.70;9.45;;;12.50;92.50;;;;;;4590149;19;20010;-34
2022/12/08 09:01:59;;;;;;;13.85;8.98;;;12.60;92.50;;;;;;4591630;19;20018;-33
2022/12/08 09:03:30;;;;;;;13.63;8.20;;;12.60;92.50;;;;;;4591950;19;20500;-28
2022/12/08 09:05:03;;;;;;;11.93;7.95;;;12.60;92.50;;;;;;4591505;19;20011;-29
2022/12/08 09:06:34;;;;;;;11.98;8.27;;;12.70;92.50;;;;;;4590772;19;20018;-34
2022/12/08 09:08:05;;;;;;;12.50;8.57;;;12.70;92.40;;;;;;4591224;19;20016;-31
2022/12/08 09:09:37;;;;;;;13.25;9.35;;;12.70;92.40;;;;;;4591175;19;20031;-30
2022/12/08 09:11:08;;;;;;;12.85;9.60;;;12.70;92.30;;;;;;4591599;19;20019;-34
2022/12/08 09:12:39;;;;;;;14.23;9.88;;;12.70;92.30;;;;;;4590567;19;20010;-31
2022/12/08 09:14:11;;;;;;;14.85;10.98;;;12.80;92.40;;;;;;4590698;19;20029;-29
2022/12/08 09:15:42;;;;;;;14.77;9.97;;;12.80;92.40;;;;;;4591191;19;20015;-30
2022/12/08 09:17:14;;;;;;;17.90;10.98;;;12.80;92.40;;;;;;4592467;19;19998;-36
2022/12/08 09:18:46;;;;;;;17.15;10.35;;;12.80;92.40;;;;;;4591523;19;20034;-34
2022/12/08 09:20:17;;;;;;;14.15;8.98;;;12.80;92.20;;;;;;4590363;19;20018;-29
2022/12/08 09:21:48;;;;;;;13.35;9.25;;;12.80;92.20;;;;;;4590627;19;20027;-29
2022/12/08 09:23:19;;;;;;;13.38;9.48;;;12.90;92.20;;;;;;4590448;19;20014;-29
2022/12/08 09:24:50;;;;;;;15.40;9.75;;;12.90;92.20;;;;;;4591673;19;20021;-33
2022/12/08 09:26:22;;;;;;;15.32;10.60;;;12.90;92.20;;;;;;4591966;19;20015;-31
2022/12/08 09:27:53;;;;;;;17.08;10.25;;;12.90;92.20;;;;;;4592209;19;20340;-31
2022/12/08 09:29:25;;;;;;;17.00;10.82;;;12.90;92.20;;;;;;4589140;19;20018;-32
2022/12/08 09:30:56;;;;;;;14.85;9.75;;;12.90;92.30;;;;;;4590116;19;20098;-35
2022/12/08 09:32:27;;;;;;;13.23;9.43;;;12.90;92.30;;;;;;4590183;19;20021;-28
2022/12/08 09:33:58;;;;;;;16.10;10.63;;;12.90;92.20;;;;;;4590449;19;20010;-32
2022/12/08 09:35:29;;;;;;;13.50;9.40;;;12.90;92.30;;;;;;4588579;19;20010;-29
2022/12/08 09:37:01;;;;;;;13.75;9.18;;;12.90;92.30;;;;;;4591598;19;20010;-34
2022/12/08 09:38:32;;;;;;;11.65;9.23;;;12.90;92.30;;;;;;4591166;19;20015;-30
2022/12/08 09:40:05;;;;;;;14.93;10.02;;;12.90;92.30;;;;;;4589616;19;20016;-32
2022/12/08 09:41:51;;;;;;;15.47;8.63;;;12.90;92.40;;;;;;4590412;19;20010;-31
2022/12/08 09:43:41;;;;;;;14.13;9.90;;;12.90;92.40;;;;;;4590774;19;20480;-27
2022/12/08 09:45:13;;;;;;;15.70;9.93;;;12.90;92.30;;;;;;4590175;19;20465;-34
2022/12/08 09:46:44;;;;;;;15.43;10.47;;;12.90;92.40;;;;;;4590763;19;20074;-35
2022/12/08 09:48:23;;;;;;;17.63;10.48;;;12.90;92.30;;;;;;4588230;19;20039;-31
2022/12/08 09:50:10;;;;;;;17.50;12.33;;;12.90;92.40;;;;;;4588603;19;20069;-33
2022/12/08 09:51:42;;;;;;;17.27;12.17;;;12.90;92.40;;;;;;4588621;19;20119;-29
2022/12/08 09:53:15;;;;;;;17.27;11.77;;;12.90;92.50;;;;;;4588193;19;20009;-31
2022/12/08 09:54:46;;;;;;;15.80;12.13;;;12.80;92.60;;;;;;4588958;19;20040;-35
2022/12/08 09:56:22;;;;;;;19.85;13.38;;;12.80;92.60;;;;;;4588070;19;20400;-33
2022/12/08 09:57:59;;;;;;;19.03;12.80;;;12.90;92.60;;;;;;4588448;19;20014;-31
2022/12/08 09:59:34;;;;;;;16.43;12.03;;;12.80;92.60;;;;;;4588361;19;20009;-29
2022/12/08 10:01:08;;;;;;;17.43;11.63;;;12.80;92.60;;;;;;4585771;19;20011;-34
2022/12/08 10:02:40;;;;;;;17.50;12.10;;;12.80;92.60;;;;;;4588099;19;20025;-32
2022/12/08 10:04:24;;;;;;;15.68;10.23;;;12.80;92.70;;;;;;4588022;19;20014;-32
2022/12/08 10:06:20;;;;;;;15.07;10.57;;;12.80;92.60;;;;;;4588222;19;20375;-31
2022/12/08 10:08:16;;;;;;;16.77;11.20;;;12.80;92.60;;;;;;4588341;19;20014;-33
2022/12/08 10:10:01;;;;;;;15.63;11.40;;;12.80;92.60;;;;;;4588606;19;20066;-35
2022/12/08 10:11:44;;;;;;;14.23;8.87;;;12.80;92.60;;;;;;4588687;19;20127;-30
2022/12/08 10:13:35;;;;;;;14.38;9.35;;;12.80;92.70;;;;;;4588196;19;20046;-32
2022/12/08 10:15:37;;;;;;;14.93;10.10;;;12.80;92.70;;;;;;4588137;19;20011;-31
2022/12/08 10:17:29;;;;;;;16.02;10.70;;;12.80;92.70;;;;;;4588232;19;20544;-33
2022/12/08 10:19:08;;;;;;;15.83;11.67;;;12.80;92.70;;;;;;4587769;19;20021;-30
2022/12/08 10:20:40;;;;;;;16.53;10.80;;;12.80;92.80;;;;;;4588445;19;20015;-29
2022/12/08 10:22:23;;;;;;;14.20;10.87;;;12.80;93.00;;;;;;4590394;19;20448;-36
2022/12/08 10:23:57;;;;;;;17.05;11.00;;;12.80;92.90;;;;;;4589517;19;20014;-30
2022/12/08 10:25:32;;;;;;;15.63;11.03;;;12.80;92.90;;;;;;4588945;19;20074;-31
2022/12/08 10:27:04;;;;;;;19.40;11.87;;;12.80;92.90;;;;;;4588673;19;20044;-35
2022/12/08 10:28:35;;;;;;;20.67;12.47;;;12.80;93.00;;;;;;4589316;19;20017;-32
2022/12/08 10:30:13;;;;;;;17.67;11.45;;;12.80;93.00;;;;;;4590375;19;20074;-30
2022/12/08 10:31:45;;;;;;;15.53;11.73;;;12.80;93.00;;;;;;4588736;19;20096;-32
2022/12/08 10:33:18;;;;;;;18.48;12.20;;;12.80;93.00;;;;;;4589589;19;20018;-29
2022/12/08 10:35:07;;;;;;;18.37;11.67;;;12.70;92.90;;;;;;4589547;19;20015;-30
2022/12/08 10:36:55;;;;;;;15.60;11.00;;;12.80;93.00;;;;;;4588964;19;20416;-32
2022/12/08 10:38:33;;;;;;;19.57;11.97;;;12.80;93.00;;;;;;4589748;19;20019;-28
2022/12/08 10:40:07;;;;;;;18.67;12.80;;;12.80;93.10;;;;;;4588597;19;20006;-29
2022/12/08 10:41:39;;;;;;;17.30;13.00;;;12.80;93.10;;;;;;4589453;19;20014;-30
2022/12/08 10:43:21;;;;;;;18.35;12.98;;;12.80;93.10;;;;;;4590770;19;20020;-35
2022/12/08 10:45:14;;;;;;;17.58;12.77;;;12.80;93.20;;;;;;4588576;19;20019;-31
2022/12/08 10:46:45;;;;;;;17.10;13.30;;;12.80;93.20;;;;;;4588533;19;20442;-30
2022/12/08 10:48:25;;;;;;;16.13;12.07;;;12.80;93.20;;;;;;4588702;19;20006;-28
2022/12/08 10:50:40;;;;;;;18.30;12.00;;;12.80;93.20;;;;;;4588865;19;20016;-30
2022/12/08 10:52:24;;;;;;;18.73;13.30;;;12.80;93.30;;;;;;4588626;19;20484;-32
2022/12/08 10:53:55;;;;;;;18.50;13.23;;;12.80;93.20;;;;;;4590255;19;20027;-32
2022/12/08 10:55:27;;;;;;;19.25;12.85;;;12.70;93.20;;;;;;4590463;19;20030;-29
2022/12/08 10:56:58;;;;;;;19.17;13.13;;;12.70;93.20;;;;;;4587505;19;20085;-36
2022/12/08 10:58:34;;;;;;;19.77;13.45;;;12.70;93.20;;;;;;4588413;19;20018;-29
2022/12/08 11:00:06;;;;;;;18.10;13.43;;;12.80;93.30;;;;;;4589017;19;20010;-31
2022/12/08 11:01:39;;;;;;;18.03;12.90;;;12.80;93.30;;;;;;4589136;19;20066;-32
2022/12/08 11:03:23;;;;;;;18.50;13.82;;;12.80;93.30;;;;;;4588162;19;20569;-30
2022/12/08 11:05:00;;;;;;;18.70;14.07;;;12.70;93.30;;;;;;4588465;19;20013;-31
2022/12/08 11:06:34;;;;;;;18.87;14.27;;;12.80;93.40;;;;;;4588441;19;20495;-30
2022/12/08 11:08:07;;;;;;;17.97;13.37;;;12.80;93.40;;;;;;4588527;19;20344;-29
2022/12/08 11:09:40;;;;;;;19.50;13.67;;;12.80;93.40;;;;;;4588054;19;20568;-29
2022/12/08 11:11:12;;;;;;;18.07;13.43;;;12.80;93.40;;;;;;4587914;19;20011;-33
2022/12/08 11:12:43;;;;;;;18.75;13.93;;;12.70;93.50;;;;;;4591747;19;20085;-28
2022/12/08 11:14:25;;;;;;;19.42;14.65;;;12.70;93.50;;;;;;4595071;19;20010;-31
2022/12/08 11:15:57;;;;;;;16.97;14.27;;;12.80;93.50;;;;;;4594169;19;20010;-30
2022/12/08 11:17:34;;;;;;;22.08;14.77;;;12.80;93.60;;;;;;4592743;19;20497;-31
2022/12/08 11:19:05;;;;;;;20.23;15.67;;;12.80;93.60;;;;;;4592997;19;20017;-34
2022/12/08 11:20:38;;;;;;;21.10;16.10;;;12.80;93.70;;;;;;4592997;19;20017;-34
2022/12/08 11:22:29;;;;;;;18.40;15.37;;;12.80;93.90;;;;;;4593169;19;20007;-33
2022/12/08 11:24:15;;;;;;;21.40;15.03;;;12.80;93.70;;;;;;4594262;19;20476;-31
2022/12/08 11:25:47;;;;;;;23.43;16.93;;;12.80;93.70;;;;;;4593939;19;20002;-32
2022/12/08 11:27:18;;;;;;;29.17;20.23;;;12.80;93.70;;;;;;4592699;19;20091;-32
2022/12/08 11:28:49;;;;;;;33.05;23.23;;;12.80;93.70;;;;;;4593160;19;20013;-32
2022/12/08 11:30:29;;;;;;;31.15;22.35;;;12.80;93.70;;;;;;4594160;19;20030;-31
2022/12/08 11:32:27;;;;;;;23.60;18.13;;;12.80;93.70;;;;;;4592678;19;20508;-29
2022/12/08 11:33:58;;;;;;;22.67;16.53;;;12.80;93.70;;;;;;4593216;19;20002;-31
2022/12/08 11:35:33;;;;;;;18.58;14.93;;;12.70;93.70;;;;;;4593540;19;20014;-30
2022/12/08 11:37:05;;;;;;;18.40;14.30;;;12.80;93.70;;;;;;4593263;19;20011;-30
2022/12/08 11:38:40;;;;;;;19.33;14.20;;;12.80;93.70;;;;;;4593650;19;20011;-32
2022/12/08 11:40:27;;;;;;;16.03;12.97;;;12.80;93.70;;;;;;4592414;19;20014;-29
2022/12/08 11:41:58;;;;;;;16.40;12.47;;;12.80;93.80;;;;;;4593492;19;20421;-30
2022/12/08 11:43:32;;;;;;;16.67;12.82;;;12.80;93.80;;;;;;4593043;19;20468;-29
2022/12/08 11:45:10;;;;;;;18.87;13.03;;;12.80;93.70;;;;;;4591982;19;20014;-31
2022/12/08 11:46:42;;;;;;;16.80;13.20;;;12.80;93.80;;;;;;4592153;19;20031;-29
2022/12/08 11:48:15;;;;;;;;;;;12.80;93.70;;;;;;4593178;19;20022;-33
2022/12/08 11:49:47;;;;;;;20.97;16.33;;;12.80;93.70;;;;;;4590854;19;19925;-33
2022/12/08 11:51:21;;;;;;;21.27;17.52;;;12.80;93.80;;;;;;4592676;19;20018;-28
2022/12/08 11:52:54;;;;;;;20.13;16.20;;;12.80;93.90;;;;;;4593299;19;20017;-33
2022/12/08 11:54:26;;;;;;;19.73;15.90;;;12.80;93.90;;;;;;4594010;19;20018;-29